Time;durP1;ratioP1;P1;durP2;ratioP2;P2;SDS_P1;SDS_P2;PMS_P1;PMS_P2;Temp;Humidity;BMP_temperature;BMP_pressure;BME280_temperature;BME280_humidity;BME280_pressure;Samples;Min_cycle;Max_cycle;Signal;HPM_P1;HPM_P2
2021/01/18 00:00:57;;;;;;;8.88;2.97;;;5.80;99.90;;;;;;5087226;28;20202;-76
2021/01/18 00:03:24;;;;;;;4.43;3.40;;;5.80;99.90;;;;;;5093571;28;20205;-76
2021/01/18 00:05:50;;;;;;;6.22;2.47;;;5.80;99.90;;;;;;5076665;28;20252;-75
2021/01/18 00:08:16;;;;;;;5.28;2.50;;;5.80;99.90;;;;;;5073713;28;20201;-75
2021/01/18 00:10:43;;;;;;;5.85;3.47;;;5.80;99.90;;;;;;5076696;28;20335;-75
2021/01/18 00:13:09;;;;;;;2.60;2.40;;;5.80;99.90;;;;;;5091576;28;20197;-75
2021/01/18 00:15:35;;;;;;;5.20;2.40;;;5.80;99.90;;;;;;5094210;28;20565;-74
2021/01/18 00:18:02;;;;;;;4.95;2.20;;;5.80;99.90;;;;;;5084299;28;20197;-74
2021/01/18 00:20:29;;;;;;;6.32;2.97;;;5.80;99.90;;;;;;5080479;28;20229;-75
2021/01/18 00:22:55;;;;;;;9.50;3.50;;;5.80;99.90;;;;;;5080356;28;20259;-74
2021/01/18 00:25:23;;;;;;;7.80;3.05;;;5.80;99.90;;;;;;5087126;28;20262;-75
2021/01/18 00:27:50;;;;;;;6.05;2.25;;;5.80;99.90;;;;;;5073317;28;20229;-75
2021/01/18 00:30:19;;;;;;;8.25;3.13;;;5.80;99.90;;;;;;5075697;28;20199;-75
2021/01/18 00:32:45;;;;;;;5.93;2.45;;;5.80;99.90;;;;;;5075052;28;20646;-75
2021/01/18 00:35:13;;;;;;;8.65;3.05;;;5.80;99.90;;;;;;5073851;28;20198;-75
2021/01/18 00:37:42;;;;;;;5.15;3.30;;;5.80;99.90;;;;;;5079064;28;20231;-75
2021/01/18 00:40:09;;;;;;;5.10;2.90;;;5.80;99.90;;;;;;5073641;28;20202;-75
2021/01/18 00:42:36;;;;;;;4.18;2.70;;;5.80;99.90;;;;;;5074118;28;20201;-75
2021/01/18 00:45:03;;;;;;;6.38;3.13;;;5.80;99.90;;;;;;5089205;28;20204;-75
2021/01/18 00:47:29;;;;;;;7.97;2.65;;;5.80;99.90;;;;;;5074157;28;20220;-75
2021/01/18 00:49:56;;;;;;;5.47;2.85;;;5.80;99.90;;;;;;5079204;28;20198;-75
2021/01/18 00:52:22;;;;;;;8.27;2.65;;;5.80;99.90;;;;;;5091632;28;20240;-75
2021/01/18 00:54:49;;;;;;;8.10;3.10;;;5.80;99.90;;;;;;5077872;28;20197;-76
2021/01/18 00:57:15;;;;;;;5.07;2.50;;;5.80;99.90;;;;;;5079949;28;20190;-76
2021/01/18 00:59:41;;;;;;;9.38;3.38;;;5.80;99.90;;;;;;5076736;28;20206;-75
2021/01/18 01:02:07;;;;;;;5.68;3.00;;;5.80;99.90;;;;;;5077588;28;20205;-76
2021/01/18 01:04:34;;;;;;;7.78;3.00;;;5.90;99.90;;;;;;5084539;28;20197;-76
2021/01/18 01:07:00;;;;;;;8.18;3.53;;;5.90;99.90;;;;;;5091595;28;20549;-75
2021/01/18 01:09:26;;;;;;;4.65;2.80;;;5.90;99.90;;;;;;5093241;28;20193;-76
2021/01/18 01:11:53;;;;;;;2.75;2.55;;;5.90;99.90;;;;;;5091067;28;20251;-76
2021/01/18 01:14:19;;;;;;;6.72;3.40;;;5.80;99.90;;;;;;5091713;28;20250;-76
2021/01/18 01:16:46;;;;;;;4.68;2.85;;;5.90;99.90;;;;;;5092239;28;20197;-76
2021/01/18 01:19:12;;;;;;;8.68;3.42;;;5.90;99.90;;;;;;5075639;28;20190;-75
2021/01/18 01:21:38;;;;;;;3.97;3.00;;;5.90;99.90;;;;;;5080565;28;20205;-76
2021/01/18 01:24:06;;;;;;;6.68;2.67;;;5.90;99.90;;;;;;5082461;28;20854;-75
2021/01/18 01:26:32;;;;;;;2.65;2.40;;;5.90;99.90;;;;;;5085623;28;20214;-76
2021/01/18 01:28:59;;;;;;;5.05;3.10;;;5.90;99.90;;;;;;5079078;28;20189;-76
2021/01/18 01:31:25;;;;;;;3.03;2.60;;;5.90;99.90;;;;;;5073397;28;20198;-76
2021/01/18 01:33:52;;;;;;;5.35;3.47;;;5.90;99.90;;;;;;5089242;28;20197;-76
2021/01/18 01:36:18;;;;;;;5.75;2.75;;;5.90;99.90;;;;;;5081985;28;20194;-76
2021/01/18 01:38:44;;;;;;;7.25;3.58;;;5.90;99.90;;;;;;5077930;28;20193;-76
2021/01/18 01:41:10;;;;;;;4.88;3.13;;;5.90;99.90;;;;;;5089876;28;20193;-76
2021/01/18 01:43:37;;;;;;;8.00;3.20;;;5.90;99.90;;;;;;5088360;28;20197;-76
2021/01/18 01:46:04;;;;;;;3.13;2.63;;;5.90;99.90;;;;;;5090826;28;20222;-75
2021/01/18 01:48:31;;;;;;;3.90;3.00;;;5.90;99.90;;;;;;5083389;28;20194;-75
2021/01/18 01:50:58;;;;;;;5.30;3.15;;;5.90;99.90;;;;;;5091128;28;20250;-76
2021/01/18 01:53:29;;;;;;;7.97;3.88;;;5.90;99.90;;;;;;5092168;28;20209;-75
2021/01/18 01:55:55;;;;;;;4.53;2.95;;;6.00;99.90;;;;;;5074337;28;20193;-75
2021/01/18 01:58:23;;;;;;;9.05;3.88;;;6.00;99.90;;;;;;5083552;28;20193;-75
2021/01/18 02:00:49;;;;;;;5.20;2.85;;;6.00;99.90;;;;;;5090875;28;20198;-75
2021/01/18 02:03:25;;;;;;;11.55;3.72;;;6.00;99.90;;;;;;5079139;28;20194;-75
2021/01/18 02:05:53;;;;;;;4.78;3.10;;;5.90;99.90;;;;;;5073956;28;20195;-75
2021/01/18 02:08:20;;;;;;;4.15;2.30;;;6.00;99.90;;;;;;5090640;28;20197;-75
2021/01/18 02:10:46;;;;;;;3.40;3.00;;;5.90;99.90;;;;;;5089299;28;20193;-76
2021/01/18 02:13:23;;;;;;;3.78;2.70;;;6.00;99.90;;;;;;5073836;28;20220;-75
2021/01/18 02:15:59;;;;;;;5.15;3.20;;;6.00;99.90;;;;;;5092342;28;20215;-74
2021/01/18 02:18:43;;;;;;;5.85;3.88;;;6.00;99.90;;;;;;5077319;28;20197;-74
2021/01/18 02:21:41;;;;;;;4.07;3.13;;;6.00;99.90;;;;;;5085959;28;20653;-75
2021/01/18 02:24:37;;;;;;;6.90;3.20;;;6.00;99.90;;;;;;5082854;28;20202;-75
2021/01/18 02:27:20;;;;;;;4.32;3.00;;;6.00;99.90;;;;;;5068881;28;20217;-75
2021/01/18 02:30:05;;;;;;;4.53;2.80;;;6.00;99.90;;;;;;5079356;28;20202;-75
2021/01/18 02:33:00;;;;;;;9.88;4.93;;;6.00;99.90;;;;;;5077180;28;20193;-74
2021/01/18 02:36:00;;;;;;;4.90;3.20;;;5.90;99.90;;;;;;5084373;28;20185;-74
2021/01/18 02:38:31;;;;;;;7.97;3.75;;;5.90;99.90;;;;;;5086389;28;20324;-74
2021/01/18 02:41:10;;;;;;;4.70;2.63;;;5.90;99.90;;;;;;5081147;28;20272;-75
2021/01/18 02:43:44;;;;;;;4.53;2.42;;;5.90;99.90;;;;;;5086027;28;20197;-74
2021/01/18 02:46:14;;;;;;;3.95;2.97;;;5.90;99.90;;;;;;5094675;28;20212;-74
2021/01/18 02:48:41;;;;;;;5.45;3.13;;;5.80;99.90;;;;;;5095330;28;20189;-74
2021/01/18 02:51:11;;;;;;;3.53;3.22;;;5.90;99.90;;;;;;5082008;28;20216;-75
2021/01/18 02:53:38;;;;;;;4.70;3.33;;;5.90;99.90;;;;;;5088583;28;20208;-74
2021/01/18 02:56:06;;;;;;;5.03;3.15;;;5.90;99.90;;;;;;5075493;28;20194;-74
2021/01/18 02:58:36;;;;;;;8.73;3.65;;;5.90;99.90;;;;;;5086781;28;20249;-74
2021/01/18 03:01:13;;;;;;;9.02;3.97;;;6.00;99.90;;;;;;5090889;28;20263;-74
2021/01/18 03:03:52;;;;;;;5.00;3.63;;;5.90;99.90;;;;;;5075499;28;20531;-74
2021/01/18 03:06:24;;;;;;;5.35;3.10;;;5.90;99.90;;;;;;5086158;28;20208;-74
2021/01/18 03:08:55;;;;;;;3.15;2.60;;;5.80;99.90;;;;;;5095285;28;20190;-74
2021/01/18 03:11:26;;;;;;;8.75;3.03;;;5.90;99.90;;;;;;5088999;28;20190;-75
2021/01/18 03:14:00;;;;;;;4.00;3.05;;;6.00;99.90;;;;;;5076532;28;20186;-76
2021/01/18 03:16:29;;;;;;;5.53;3.72;;;6.00;99.90;;;;;;5079762;28;20177;-75
2021/01/18 03:18:59;;;;;;;6.75;3.25;;;6.00;99.90;;;;;;5079892;28;20500;-75
2021/01/18 03:21:26;;;;;;;9.52;3.08;;;6.00;99.90;;;;;;5080768;28;20258;-75
2021/01/18 03:23:53;;;;;;;4.50;2.95;;;6.00;99.90;;;;;;5087017;28;20206;-74
2021/01/18 03:26:24;;;;;;;6.78;3.10;;;6.00;99.90;;;;;;5090271;28;20217;-74
2021/01/18 03:28:50;;;;;;;6.05;2.97;;;6.00;99.90;;;;;;5087307;28;20270;-74
2021/01/18 03:31:17;;;;;;;6.75;4.20;;;6.10;99.90;;;;;;5080071;28;20247;-75
2021/01/18 03:33:43;;;;;;;5.78;3.25;;;6.10;99.90;;;;;;5094310;28;20200;-74
2021/01/18 03:36:09;;;;;;;9.35;4.10;;;6.10;99.90;;;;;;5082485;28;20197;-74
2021/01/18 03:38:37;;;;;;;5.55;4.22;;;6.10;99.90;;;;;;5077990;28;20661;-74
2021/01/18 03:41:03;;;;;;;6.28;3.40;;;6.00;99.90;;;;;;5076092;28;20205;-74
2021/01/18 03:43:29;;;;;;;6.55;3.47;;;6.00;99.90;;;;;;5077430;28;20213;-74
2021/01/18 03:45:55;;;;;;;4.50;3.15;;;6.00;99.90;;;;;;5094590;28;20194;-74
2021/01/18 03:48:22;;;;;;;6.28;4.38;;;6.00;99.90;;;;;;5090635;28;20204;-74
2021/01/18 03:50:50;;;;;;;5.43;3.67;;;6.00;99.90;;;;;;5093595;28;20212;-74
2021/01/18 03:53:16;;;;;;;4.03;3.50;;;6.00;99.90;;;;;;5082926;28;20198;-74
2021/01/18 03:55:44;;;;;;;3.65;3.35;;;6.00;99.90;;;;;;5074511;28;20759;-74
2021/01/18 03:58:10;;;;;;;10.52;3.72;;;6.00;99.90;;;;;;5088716;28;20280;-75
2021/01/18 04:00:37;;;;;;;4.47;3.30;;;6.10;99.90;;;;;;5086874;28;20201;-75
2021/01/18 04:03:04;;;;;;;5.82;4.13;;;6.10;99.90;;;;;;5089898;28;20201;-75
2021/01/18 04:05:30;;;;;;;7.03;4.55;;;6.00;99.90;;;;;;5087723;28;20262;-74
2021/01/18 04:07:56;;;;;;;6.97;4.85;;;6.10;99.90;;;;;;5089832;28;20207;-74
2021/01/18 04:10:25;;;;;;;6.50;4.30;;;6.10;99.90;;;;;;5089727;28;20193;-74
2021/01/18 04:12:53;;;;;;;6.25;4.53;;;6.10;99.90;;;;;;5087998;28;20209;-74
2021/01/18 04:15:21;;;;;;;7.57;3.80;;;6.10;99.90;;;;;;5074031;28;20201;-74
2021/01/18 04:17:49;;;;;;;7.43;4.35;;;6.10;99.90;;;;;;5085754;28;20546;-74
2021/01/18 04:20:15;;;;;;;5.70;5.18;;;6.10;99.90;;;;;;5087573;28;20202;-74
2021/01/18 04:22:46;;;;;;;5.78;4.10;;;6.00;99.90;;;;;;5074201;28;20236;-74
2021/01/18 04:25:15;;;;;;;7.07;3.95;;;6.10;99.90;;;;;;5073704;28;20689;-74
2021/01/18 04:27:45;;;;;;;7.40;4.30;;;6.10;99.90;;;;;;5074746;28;20218;-73
2021/01/18 04:30:14;;;;;;;8.30;4.05;;;6.00;99.90;;;;;;5085832;28;20213;-74
2021/01/18 04:32:40;;;;;;;13.50;5.03;;;6.00;99.90;;;;;;5089807;28;20193;-74
2021/01/18 04:35:08;;;;;;;7.72;5.47;;;6.00;99.90;;;;;;5080610;28;20198;-74
2021/01/18 04:37:34;;;;;;;4.78;4.38;;;6.00;99.90;;;;;;5073415;28;20226;-74
2021/01/18 04:40:00;;;;;;;9.45;4.80;;;6.00;99.90;;;;;;5087515;28;20190;-74
2021/01/18 04:42:27;;;;;;;4.47;3.97;;;6.00;99.90;;;;;;5090548;28;20200;-76
2021/01/18 04:44:55;;;;;;;6.53;4.97;;;6.00;99.90;;;;;;5078533;28;20194;-74
2021/01/18 04:47:26;;;;;;;6.32;4.32;;;6.00;99.90;;;;;;5077620;28;20214;-74
2021/01/18 04:49:55;;;;;;;8.70;5.22;;;6.00;99.90;;;;;;5089002;28;20243;-75
2021/01/18 04:52:34;;;;;;;6.18;5.32;;;5.90;99.90;;;;;;5072499;28;20642;-75
2021/01/18 04:55:03;;;;;;;6.60;4.38;;;6.00;99.90;;;;;;5074908;28;20538;-75
2021/01/18 04:57:38;;;;;;;9.35;4.65;;;6.00;99.90;;;;;;5075300;28;20221;-75
2021/01/18 05:00:05;;;;;;;9.70;6.88;;;5.90;99.90;;;;;;5085031;28;20193;-74
2021/01/18 05:02:39;;;;;;;7.95;5.40;;;5.90;99.90;;;;;;5091715;28;20193;-75
2021/01/18 05:05:20;;;;;;;11.65;4.75;;;5.90;99.90;;;;;;5079889;28;20193;-75
2021/01/18 05:08:06;;;;;;;6.57;4.85;;;5.90;99.90;;;;;;5093191;28;20726;-75
2021/01/18 05:10:33;;;;;;;9.68;4.53;;;5.90;99.90;;;;;;5086060;28;20230;-75
2021/01/18 05:13:03;;;;;;;12.77;4.82;;;5.90;99.90;;;;;;5092737;28;20216;-75
2021/01/18 05:15:29;;;;;;;10.23;4.65;;;5.90;99.90;;;;;;5081309;28;20198;-75
2021/01/18 05:18:06;;;;;;;8.45;5.10;;;6.00;99.90;;;;;;5077867;28;20592;-75
2021/01/18 05:20:33;;;;;;;7.40;4.85;;;5.90;99.90;;;;;;5079285;28;20193;-75
2021/01/18 05:23:07;;;;;;;5.45;4.68;;;6.00;99.90;;;;;;5073726;28;20642;-75
2021/01/18 05:25:34;;;;;;;7.20;5.72;;;6.00;99.90;;;;;;5082530;28;20186;-77
2021/01/18 05:28:03;;;;;;;9.57;6.43;;;6.00;99.90;;;;;;5080385;28;20274;-76
2021/01/18 05:30:30;;;;;;;7.70;5.07;;;6.00;99.90;;;;;;5072980;28;20221;-76
2021/01/18 05:33:06;;;;;;;4.97;4.38;;;6.00;99.90;;;;;;5076521;28;20603;-76
2021/01/18 05:35:33;;;;;;;9.65;4.95;;;5.90;99.90;;;;;;5073413;28;20198;-76
2021/01/18 05:38:02;;;;;;;7.15;5.15;;;6.00;99.90;;;;;;5072243;28;20226;-76
2021/01/18 05:40:33;;;;;;;11.95;5.78;;;6.00;99.90;;;;;;5072577;28;20208;-76
2021/01/18 05:43:02;;;;;;;8.15;5.55;;;6.00;99.90;;;;;;5072328;28;20629;-76
2021/01/18 05:45:30;;;;;;;9.52;5.60;;;6.00;99.90;;;;;;5072228;28;20197;-76
2021/01/18 05:47:56;;;;;;;8.52;5.35;;;6.10;99.90;;;;;;5089693;28;20240;-76
2021/01/18 05:50:26;;;;;;;8.60;6.07;;;6.10;99.90;;;;;;5092041;28;20205;-77
2021/01/18 05:52:52;;;;;;;8.98;5.80;;;6.00;99.90;;;;;;5084728;28;20519;-77
2021/01/18 05:55:20;;;;;;;7.47;6.63;;;5.90;99.90;;;;;;5072126;28;20202;-77
2021/01/18 05:57:51;;;;;;;10.55;6.78;;;6.00;99.90;;;;;;5079092;28;20273;-76
2021/01/18 06:00:34;;;;;;;8.90;6.90;;;6.00;99.90;;;;;;5092312;28;20216;-75
2021/01/18 06:03:05;;;;;;;9.10;6.95;;;6.00;99.90;;;;;;5076940;28;20629;-75
2021/01/18 06:05:33;;;;;;;11.13;5.78;;;6.00;99.90;;;;;;5079698;28;20588;-75
2021/01/18 06:08:10;;;;;;;8.63;7.28;;;6.00;99.90;;;;;;5076396;28;20690;-75
2021/01/18 06:10:37;;;;;;;11.70;6.95;;;6.00;99.90;;;;;;5092271;28;20193;-76
2021/01/18 06:13:03;;;;;;;10.63;6.85;;;6.10;99.90;;;;;;5075494;28;20204;-76
2021/01/18 06:15:30;;;;;;;11.15;7.97;;;6.00;99.90;;;;;;5086703;28;20201;-76
2021/01/18 06:17:58;;;;;;;10.68;6.82;;;6.10;99.90;;;;;;5080722;28;20194;-74
2021/01/18 06:20:26;;;;;;;10.10;7.05;;;6.10;99.90;;;;;;5077968;28;20250;-74
2021/01/18 06:22:55;;;;;;;10.00;7.95;;;6.00;99.90;;;;;;5091937;28;20190;-74
2021/01/18 06:25:25;;;;;;;12.40;7.72;;;6.00;99.90;;;;;;5076228;28;20664;-74
2021/01/18 06:27:52;;;;;;;10.23;7.82;;;6.00;99.90;;;;;;5087473;28;20206;-74
2021/01/18 06:30:27;;;;;;;10.10;8.57;;;6.10;99.90;;;;;;5092218;28;20211;-74
2021/01/18 06:32:55;;;;;;;13.05;8.65;;;6.10;99.90;;;;;;5085674;28;20193;-76
2021/01/18 06:35:27;;;;;;;15.68;9.77;;;6.00;99.90;;;;;;5071969;28;20196;-76
2021/01/18 06:38:03;;;;;;;12.27;9.70;;;6.10;99.90;;;;;;5082036;28;20221;-76
2021/01/18 06:40:34;;;;;;;10.13;7.60;;;6.00;99.90;;;;;;5085299;28;20293;-76
2021/01/18 06:43:02;;;;;;;12.63;9.13;;;6.00;99.90;;;;;;5072473;28;20870;-75
2021/01/18 06:45:33;;;;;;;15.40;9.23;;;6.00;99.90;;;;;;5080829;28;20211;-75
2021/01/18 06:48:00;;;;;;;13.23;9.73;;;6.00;99.90;;;;;;5091631;28;20303;-74
2021/01/18 06:50:30;;;;;;;12.50;9.07;;;6.10;99.90;;;;;;5091841;28;20683;-74
2021/01/18 06:52:57;;;;;;;16.35;8.70;;;6.10;99.90;;;;;;5079202;28;20201;-74
2021/01/18 06:55:26;;;;;;;12.85;8.25;;;6.10;99.90;;;;;;5080697;28;20198;-74
2021/01/18 06:58:03;;;;;;;13.77;9.48;;;6.10;99.90;;;;;;5091565;28;20239;-74
2021/01/18 07:00:30;;;;;;;15.45;9.50;;;6.10;99.90;;;;;;5091956;28;20188;-74
2021/01/18 07:02:58;;;;;;;14.23;8.10;;;6.10;99.90;;;;;;5090305;28;20311;-74
2021/01/18 07:05:35;;;;;;;12.77;8.75;;;6.10;99.90;;;;;;5091500;28;20250;-75
2021/01/18 07:08:31;;;;;;;13.88;10.57;;;6.10;99.90;;;;;;5088382;28;20220;-74
2021/01/18 07:11:09;;;;;;;13.90;9.85;;;6.10;99.90;;;;;;5070665;28;20276;-74
2021/01/18 07:13:36;;;;;;;11.15;8.40;;;6.10;99.90;;;;;;5089428;28;20637;-74
2021/01/18 07:16:11;;;;;;;15.82;9.25;;;6.10;99.90;;;;;;5084142;28;20295;-74
2021/01/18 07:18:44;;;;;;;12.85;9.57;;;6.10;99.90;;;;;;5083403;28;20193;-74
2021/01/18 07:21:10;;;;;;;17.30;10.45;;;6.00;99.90;;;;;;5075219;28;20205;-74
2021/01/18 07:23:52;;;;;;;14.25;9.77;;;6.10;99.90;;;;;;5075608;28;20194;-76
2021/01/18 07:26:44;;;;;;;14.40;9.60;;;6.10;99.90;;;;;;5074391;28;20228;-76
2021/01/18 07:29:14;;;;;;;16.15;9.43;;;6.20;99.90;;;;;;5075969;28;20739;-75
2021/01/18 07:31:45;;;;;;;16.92;11.15;;;6.10;99.90;;;;;;5087287;28;20194;-75
2021/01/18 07:34:13;;;;;;;14.98;10.05;;;6.20;99.90;;;;;;5083217;28;20250;-75
2021/01/18 07:36:41;;;;;;;13.75;10.63;;;6.20;99.90;;;;;;5094841;28;20213;-74
2021/01/18 07:39:29;;;;;;;19.27;11.10;;;6.20;99.90;;;;;;5075420;28;20198;-75
2021/01/18 07:41:56;;;;;;;17.73;11.02;;;6.10;99.90;;;;;;5075194;28;20194;-75
2021/01/18 07:44:35;;;;;;;11.85;9.85;;;6.20;99.90;;;;;;5074594;28;21628;-75
2021/01/18 07:47:03;;;;;;;14.95;9.57;;;6.20;99.90;;;;;;5091423;28;20201;-75
2021/01/18 07:49:40;;;;;;;13.23;9.23;;;6.20;99.90;;;;;;5076254;28;20641;-74
2021/01/18 07:52:24;;;;;;;18.55;10.23;;;6.20;99.90;;;;;;5074700;28;20540;-74
2021/01/18 07:54:51;;;;;;;15.18;10.18;;;6.20;99.90;;;;;;5088994;28;20197;-76
2021/01/18 07:57:28;;;;;;;16.33;10.60;;;6.20;99.90;;;;;;5091790;28;20198;-75
2021/01/18 08:00:28;;;;;;;11.45;10.30;;;6.20;99.90;;;;;;5080860;28;20206;-76
2021/01/18 08:03:26;;;;;;;17.95;11.13;;;6.20;99.90;;;;;;5082779;28;20202;-77
2021/01/18 08:06:05;;;;;;;13.90;10.15;;;6.20;99.90;;;;;;5085724;28;20193;-77
2021/01/18 08:08:33;;;;;;;14.40;9.77;;;6.20;99.90;;;;;;5076513;28;20224;-76
2021/01/18 08:11:02;;;;;;;15.23;9.82;;;6.20;99.90;;;;;;5094508;28;20823;-76
2021/01/18 08:13:40;;;;;;;18.05;10.48;;;6.20;99.90;;;;;;5081036;28;20193;-76
2021/01/18 08:16:41;;;;;;;15.02;10.63;;;6.20;99.90;;;;;;5089475;28;20208;-76
2021/01/18 08:19:12;;;;;;;17.50;10.27;;;6.20;99.90;;;;;;5084571;28;20190;-76
2021/01/18 08:21:45;;;;;;;22.13;12.77;;;6.20;99.90;;;;;;5092959;28;20284;-76
2021/01/18 08:24:13;;;;;;;10.82;9.38;;;6.20;99.90;;;;;;5082928;28;20224;-76
2021/01/18 08:26:57;;;;;;;16.27;10.85;;;6.20;99.90;;;;;;5087161;28;20664;-76
2021/01/18 08:29:43;;;;;;;16.85;9.93;;;6.20;99.90;;;;;;5083188;28;20229;-76
2021/01/18 08:32:46;;;;;;;22.63;10.90;;;6.20;99.90;;;;;;5093826;28;20182;-75
2021/01/18 08:35:27;;;;;;;17.30;10.75;;;6.20;99.90;;;;;;5091597;28;20642;-76
2021/01/18 08:37:54;;;;;;;13.13;10.23;;;6.20;99.90;;;;;;5092777;28;20228;-77
2021/01/18 08:40:22;;;;;;;13.70;10.07;;;6.20;99.90;;;;;;5082548;28;20247;-76
2021/01/18 08:42:55;;;;;;;20.42;9.50;;;6.20;99.90;;;;;;5073784;28;20212;-76
2021/01/18 08:45:25;;;;;;;18.08;11.40;;;6.20;99.90;;;;;;5077393;28;20196;-76
2021/01/18 08:47:55;;;;;;;19.95;12.57;;;6.20;99.90;;;;;;5077653;28;20228;-76
2021/01/18 08:50:24;;;;;;;15.35;9.50;;;6.20;99.90;;;;;;5073578;28;20190;-76
2021/01/18 08:52:52;;;;;;;15.45;12.07;;;6.10;99.90;;;;;;5073266;28;20204;-76
2021/01/18 08:55:42;;;;;;;20.05;11.20;;;6.10;99.90;;;;;;5091801;28;20193;-76
2021/01/18 08:58:08;;;;;;;16.73;10.80;;;6.10;99.90;;;;;;5082158;28;20651;-76
2021/01/18 09:00:43;;;;;;;24.65;13.35;;;6.20;99.90;;;;;;5092234;28;20219;-76
2021/01/18 09:03:11;;;;;;;16.45;11.23;;;6.20;99.90;;;;;;5080980;28;20202;-76
2021/01/18 09:05:38;;;;;;;19.02;13.05;;;6.20;99.90;;;;;;5078407;28;20208;-76
2021/01/18 09:08:08;;;;;;;20.20;12.68;;;6.20;99.90;;;;;;5081758;28;20520;-75
2021/01/18 09:10:34;;;;;;;19.17;11.18;;;6.20;99.90;;;;;;5076307;28;20201;-75
2021/01/18 09:13:03;;;;;;;25.67;12.50;;;6.20;99.90;;;;;;5077863;28;20221;-76
2021/01/18 09:15:30;;;;;;;19.00;12.60;;;6.20;99.90;;;;;;5078701;28;20205;-75
2021/01/18 09:18:02;;;;;;;19.40;13.02;;;6.20;99.90;;;;;;5072924;28;20194;-76
2021/01/18 09:20:28;;;;;;;16.70;11.20;;;6.20;99.90;;;;;;5072768;28;20515;-76
2021/01/18 09:22:54;;;;;;;14.32;10.38;;;6.20;99.90;;;;;;5072137;28;20189;-76
2021/01/18 09:25:21;;;;;;;14.95;11.98;;;6.20;99.90;;;;;;5076079;28;20186;-76
2021/01/18 09:27:47;;;;;;;23.45;13.10;;;6.30;99.90;;;;;;5072251;28;20562;-76
2021/01/18 09:30:17;;;;;;;15.05;11.45;;;6.30;99.90;;;;;;5081399;28;20193;-76
2021/01/18 09:32:54;;;;;;;19.08;12.77;;;6.30;99.90;;;;;;5085619;28;20197;-76
2021/01/18 09:35:21;;;;;;;36.88;15.55;;;6.30;99.90;;;;;;5076228;28;20198;-77
2021/01/18 09:37:49;;;;;;;22.20;12.45;;;6.30;99.90;;;;;;5071639;28;20230;-76
2021/01/18 09:40:17;;;;;;;16.65;12.63;;;6.30;99.90;;;;;;5080632;28;20303;-76
2021/01/18 09:42:45;;;;;;;21.85;11.30;;;6.30;99.90;;;;;;5090593;28;20653;-76
2021/01/18 09:45:12;;;;;;;17.85;12.35;;;6.30;99.90;;;;;;5092048;28;20193;-76
2021/01/18 09:47:38;;;;;;;19.02;11.52;;;6.30;99.90;;;;;;5080160;28;20218;-76
2021/01/18 09:50:10;;;;;;;19.35;12.90;;;6.40;99.90;;;;;;5076871;28;20197;-76
2021/01/18 09:52:42;;;;;;;16.60;11.68;;;6.40;99.90;;;;;;5080964;28;20783;-76
2021/01/18 09:55:15;;;;;;;16.50;11.10;;;6.30;99.90;;;;;;5087469;28;20190;-76
2021/01/18 09:57:44;;;;;;;16.60;11.45;;;6.30;99.90;;;;;;5077394;28;20381;-76
2021/01/18 10:00:12;;;;;;;15.07;11.27;;;6.30;99.90;;;;;;5090433;28;20205;-76
2021/01/18 10:02:42;;;;;;;15.60;10.75;;;6.40;99.90;;;;;;5090133;28;20264;-76
2021/01/18 10:05:12;;;;;;;18.08;12.32;;;6.40;99.90;;;;;;5072055;28;20569;-76
2021/01/18 10:07:45;;;;;;;12.48;10.57;;;6.40;99.90;;;;;;5071714;28;20221;-77
2021/01/18 10:10:12;;;;;;;21.52;10.30;;;6.40;99.90;;;;;;5078027;28;20521;-76
2021/01/18 10:12:48;;;;;;;19.23;10.35;;;6.40;99.90;;;;;;5090992;28;20418;-77
2021/01/18 10:15:24;;;;;;;15.65;10.95;;;6.40;99.90;;;;;;5092020;28;20567;-78
2021/01/18 10:17:50;;;;;;;16.05;12.00;;;6.40;99.90;;;;;;5091338;28;20250;-78
2021/01/18 10:20:27;;;;;;;18.83;11.05;;;6.40;99.90;;;;;;5089234;28;20197;-76
2021/01/18 10:22:56;;;;;;;12.75;10.50;;;6.40;99.90;;;;;;5090429;28;20197;-77
2021/01/18 10:25:27;;;;;;;15.63;10.70;;;6.40;99.90;;;;;;5074314;28;20227;-78
2021/01/18 10:27:55;;;;;;;19.83;12.98;;;6.40;99.90;;;;;;5072173;28;20210;-80
2021/01/18 10:30:24;;;;;;;15.00;12.35;;;6.50;99.90;;;;;;5080262;28;20239;-81
2021/01/18 10:32:52;;;;;;;16.00;11.52;;;6.50;99.90;;;;;;5074765;28;20190;-79
2021/01/18 10:35:26;;;;;;;17.73;10.93;;;6.50;99.90;;;;;;5080983;28;20202;-80
2021/01/18 10:37:53;;;;;;;15.48;12.00;;;6.50;99.90;;;;;;5072548;28;20225;-78
2021/01/18 10:40:22;;;;;;;19.45;12.98;;;6.50;99.90;;;;;;5088037;28;20193;-78
2021/01/18 10:42:51;;;;;;;17.25;12.02;;;6.50;99.90;;;;;;5074733;28;20263;-78
2021/01/18 10:45:19;;;;;;;21.27;12.65;;;6.60;99.90;;;;;;5083346;28;20208;-79
2021/01/18 10:47:57;;;;;;;23.20;12.25;;;6.60;99.90;;;;;;5091948;28;20235;-79
2021/01/18 10:50:25;;;;;;;17.17;12.40;;;6.50;99.90;;;;;;5092189;28;20684;-79
2021/01/18 10:53:01;;;;;;;13.88;10.90;;;6.50;99.90;;;;;;5090595;28;20607;-78
2021/01/18 10:55:28;;;;;;;16.95;12.02;;;6.50;99.90;;;;;;5093704;28;20207;-79
2021/01/18 10:57:54;;;;;;;14.32;11.93;;;6.50;99.90;;;;;;5095452;28;20664;-78
2021/01/18 11:00:22;;;;;;;21.17;12.82;;;6.50;99.90;;;;;;5094215;28;20687;-78
2021/01/18 11:02:55;;;;;;;17.85;12.32;;;6.50;99.90;;;;;;5075442;28;20189;-79
2021/01/18 11:05:28;;;;;;;29.55;13.23;;;6.60;99.90;;;;;;5075469;28;20209;-78
2021/01/18 11:07:54;;;;;;;29.15;12.77;;;6.60;99.90;;;;;;5089430;28;20212;-80
2021/01/18 11:10:26;;;;;;;19.77;12.73;;;6.60;99.90;;;;;;5078660;28;20194;-78
2021/01/18 11:13:01;;;;;;;15.85;11.45;;;6.60;99.90;;;;;;5075113;28;20194;-78
2021/01/18 11:15:32;;;;;;;16.83;12.73;;;6.60;99.90;;;;;;5075063;28;20201;-78
2021/01/18 11:17:59;;;;;;;13.50;11.20;;;6.60;99.90;;;;;;5082724;28;20193;-78
2021/01/18 11:20:26;;;;;;;17.17;10.65;;;6.60;99.90;;;;;;5083583;28;20205;-79
2021/01/18 11:22:53;;;;;;;16.98;12.25;;;6.60;99.90;;;;;;5074824;28;20195;-78
2021/01/18 11:25:20;;;;;;;18.45;11.20;;;6.60;99.90;;;;;;5074947;28;20210;-79
2021/01/18 11:27:47;;;;;;;16.08;11.00;;;6.70;99.90;;;;;;5089177;28;20268;-77
2021/01/18 11:30:14;;;;;;;14.70;12.15;;;6.70;99.90;;;;;;5074797;28;20190;-81
2021/01/18 11:32:41;;;;;;;15.27;11.88;;;6.70;99.90;;;;;;5089917;28;20189;-81
2021/01/18 11:35:09;;;;;;;14.32;11.25;;;6.70;99.90;;;;;;5094734;28;20599;-77
2021/01/18 11:37:36;;;;;;;18.67;10.95;;;6.70;99.90;;;;;;5082889;28;20221;-78
2021/01/18 11:40:05;;;;;;;14.50;11.07;;;6.70;99.90;;;;;;5080472;28;20201;-77
2021/01/18 11:42:33;;;;;;;18.73;10.98;;;6.60;99.90;;;;;;5074478;28;20212;-77
2021/01/18 11:45:01;;;;;;;12.57;9.70;;;6.70;99.90;;;;;;5073139;28;20697;-77
2021/01/18 11:47:36;;;;;;;17.75;11.73;;;6.60;99.90;;;;;;5073409;28;20218;-77
2021/01/18 11:50:03;;;;;;;19.20;10.65;;;7.30;99.90;;;;;;5076558;28;20198;-78
2021/01/18 11:52:29;;;;;;;15.02;10.70;;;6.80;99.90;;;;;;5074481;28;20664;-78
2021/01/18 11:54:55;;;;;;;13.50;8.23;;;7.30;99.90;;;;;;5074867;28;20277;-77
2021/01/18 11:57:24;;;;;;;10.63;9.43;;;7.00;99.90;;;;;;5093990;28;20250;-81
2021/01/18 11:59:50;;;;;;;15.88;9.50;;;6.70;99.90;;;;;;5092908;28;20696;-78
2021/01/18 12:02:32;;;;;;;14.02;8.60;;;7.10;99.90;;;;;;5093152;28;20250;-82
2021/01/18 12:04:59;;;;;;;16.48;9.73;;;8.00;99.90;;;;;;5080874;28;20194;-79
2021/01/18 12:07:25;;;;;;;19.83;10.23;;;6.80;99.90;;;;;;5073822;28;20210;-78
2021/01/18 12:09:51;;;;;;;15.00;9.63;;;7.60;99.90;;;;;;5074166;28;20309;-78
2021/01/18 12:12:18;;;;;;;18.02;10.43;;;7.70;99.90;;;;;;5074269;28;20198;-81
2021/01/18 12:14:45;;;;;;;15.90;8.95;;;6.80;99.90;;;;;;5081738;28;20212;-80
2021/01/18 12:17:14;;;;;;;13.38;9.00;;;6.90;99.90;;;;;;5092853;28;20197;-85
2021/01/18 12:19:46;;;;;;;14.32;9.35;;;7.20;99.90;;;;;;5084468;28;20636;-82
2021/01/18 12:22:12;;;;;;;12.27;9.35;;;7.10;99.90;;;;;;5073726;28;20240;-77
2021/01/18 12:24:40;;;;;;;9.20;8.30;;;6.90;99.90;;;;;;5080614;28;20198;-77
2021/01/18 12:27:06;;;;;;;16.25;8.00;;;6.90;99.90;;;;;;5084502;28;20214;-77
2021/01/18 12:29:32;;;;;;;9.85;8.65;;;7.30;99.90;;;;;;5073621;28;20205;-77
2021/01/18 12:31:59;;;;;;;13.60;9.27;;;6.90;99.90;;;;;;5079172;28;20200;-78
2021/01/18 12:34:25;;;;;;;11.73;9.18;;;6.90;99.90;;;;;;5091449;28;20205;-77
2021/01/18 12:36:56;;;;;;;11.00;7.60;;;6.80;99.90;;;;;;5083851;28;20229;-77
2021/01/18 12:39:23;;;;;;;17.38;9.02;;;6.80;99.90;;;;;;5093498;28;20198;-82
2021/01/18 12:41:49;;;;;;;11.60;8.15;;;6.80;99.90;;;;;;5082262;28;20202;-78
2021/01/18 12:44:16;;;;;;;11.88;8.13;;;6.90;99.90;;;;;;5075954;28;20190;-79
2021/01/18 12:46:43;;;;;;;22.02;7.80;;;7.10;99.90;;;;;;5091906;28;20208;-82
2021/01/18 12:49:09;;;;;;;14.52;7.65;;;8.10;99.90;;;;;;5084509;28;20630;-80
2021/01/18 12:51:36;;;;;;;15.45;7.90;;;6.90;99.90;;;;;;5077019;28;20197;-80
2021/01/18 12:54:04;;;;;;;15.50;7.50;;;6.90;99.90;;;;;;5085494;28;20540;-78
2021/01/18 12:56:30;;;;;;;11.55;6.82;;;7.00;99.90;;;;;;5090652;28;20208;-80
2021/01/18 12:58:57;;;;;;;11.23;7.63;;;7.30;99.90;;;;;;5089569;28;20197;-78
2021/01/18 13:01:30;;;;;;;8.77;6.25;;;7.20;99.90;;;;;;5087823;28;20289;-78
2021/01/18 13:03:57;;;;;;;8.98;6.47;;;6.90;99.90;;;;;;5073672;28;20222;-85